sensor_id;sensor_type;location;lat;lon;timestamp;P1;durP1;ratioP1;P2;durP2;ratioP2
8536;SDS011;4306;50.210;10.628;2023-05-10T00:01:21;5.00;;;2.90;;
8536;SDS011;4306;50.210;10.628;2023-05-10T00:03:48;4.15;;;2.67;;
8536;SDS011;4306;50.210;10.628;2023-05-10T00:06:14;4.65;;;3.20;;
8536;SDS011;4306;50.210;10.628;2023-05-10T00:08:41;4.25;;;3.08;;
8536;SDS011;4306;50.210;10.628;2023-05-10T00:11:08;5.45;;;3.20;;
8536;SDS011;4306;50.210;10.628;2023-05-10T00:13:35;5.07;;;3.20;;
8536;SDS011;4306;50.210;10.628;2023-05-10T00:16:02;6.88;;;2.90;;
8536;SDS011;4306;50.210;10.628;2023-05-10T00:18:30;4.97;;;2.92;;
8536;SDS011;4306;50.210;10.628;2023-05-10T00:20:57;4.70;;;3.28;;
8536;SDS011;4306;50.210;10.628;2023-05-10T00:23:24;8.43;;;3.42;;
8536;SDS011;4306;50.210;10.628;2023-05-10T00:25:50;4.18;;;3.10;;
8536;SDS011;4306;50.210;10.628;2023-05-10T00:28:17;4.30;;;3.42;;
8536;SDS011;4306;50.210;10.628;2023-05-10T00:30:44;4.32;;;3.30;;
8536;SDS011;4306;50.210;10.628;2023-05-10T00:33:11;5.35;;;3.25;;
8536;SDS011;4306;50.210;10.628;2023-05-10T00:35:39;4.38;;;3.38;;
8536;SDS011;4306;50.210;10.628;2023-05-10T00:38:06;6.45;;;3.63;;
8536;SDS011;4306;50.210;10.628;2023-05-10T00:40:35;6.88;;;3.33;;
8536;SDS011;4306;50.210;10.628;2023-05-10T00:43:02;4.80;;;3.90;;
8536;SDS011;4306;50.210;10.628;2023-05-10T00:45:29;6.70;;;3.60;;
8536;SDS011;4306;50.210;10.628;2023-05-10T00:47:57;5.32;;;3.83;;
8536;SDS011;4306;50.210;10.628;2023-05-10T00:50:24;4.88;;;3.78;;
8536;SDS011;4306;50.210;10.628;2023-05-10T00:52:53;5.35;;;3.38;;
8536;SDS011;4306;50.210;10.628;2023-05-10T00:55:20;5.63;;;3.70;;
8536;SDS011;4306;50.210;10.628;2023-05-10T00:57:47;5.97;;;3.60;;
8536;SDS011;4306;50.210;10.628;2023-05-10T01:00:14;5.47;;;4.05;;
8536;SDS011;4306;50.210;10.628;2023-05-10T01:02:43;5.05;;;4.03;;
8536;SDS011;4306;50.210;10.628;2023-05-10T01:05:10;5.03;;;3.97;;
8536;SDS011;4306;50.210;10.628;2023-05-10T01:07:37;7.03;;;4.07;;
8536;SDS011;4306;50.210;10.628;2023-05-10T01:10:06;6.63;;;4.00;;
8536;SDS011;4306;50.210;10.628;2023-05-10T01:12:34;6.85;;;4.20;;
8536;SDS011;4306;50.210;10.628;2023-05-10T01:15:04;6.63;;;4.78;;
8536;SDS011;4306;50.210;10.628;2023-05-10T01:17:33;5.90;;;4.57;;
8536;SDS011;4306;50.210;10.628;2023-05-10T01:20:01;7.00;;;4.70;;
8536;SDS011;4306;50.210;10.628;2023-05-10T01:22:36;7.95;;;4.55;;
8536;SDS011;4306;50.210;10.628;2023-05-10T01:25:30;6.22;;;4.30;;
8536;SDS011;4306;50.210;10.628;2023-05-10T01:28:14;6.28;;;4.70;;
8536;SDS011;4306;50.210;10.628;2023-05-10T01:31:06;6.53;;;5.07;;
8536;SDS011;4306;50.210;10.628;2023-05-10T01:33:46;6.25;;;4.32;;
8536;SDS011;4306;50.210;10.628;2023-05-10T01:36:21;7.30;;;5.22;;
8536;SDS011;4306;50.210;10.628;2023-05-10T01:38:54;5.88;;;4.88;;
8536;SDS011;4306;50.210;10.628;2023-05-10T01:41:27;7.78;;;5.25;;
8536;SDS011;4306;50.210;10.628;2023-05-10T01:44:00;7.15;;;5.13;;
8536;SDS011;4306;50.210;10.628;2023-05-10T01:46:33;6.65;;;4.72;;
8536;SDS011;4306;50.210;10.628;2023-05-10T01:49:05;5.60;;;4.40;;
8536;SDS011;4306;50.210;10.628;2023-05-10T01:51:36;6.03;;;4.88;;
8536;SDS011;4306;50.210;10.628;2023-05-10T01:54:07;5.97;;;5.00;;
8536;SDS011;4306;50.210;10.628;2023-05-10T01:56:36;5.82;;;4.47;;
8536;SDS011;4306;50.210;10.628;2023-05-10T01:59:06;7.38;;;4.55;;
8536;SDS011;4306;50.210;10.628;2023-05-10T02:01:37;6.32;;;4.90;;
8536;SDS011;4306;50.210;10.628;2023-05-10T02:04:06;7.90;;;5.18;;
8536;SDS011;4306;50.210;10.628;2023-05-10T02:06:35;6.35;;;4.78;;
8536;SDS011;4306;50.210;10.628;2023-05-10T02:09:05;6.78;;;4.70;;
8536;SDS011;4306;50.210;10.628;2023-05-10T02:11:34;6.57;;;4.80;;
8536;SDS011;4306;50.210;10.628;2023-05-10T02:14:03;7.68;;;5.30;;
8536;SDS011;4306;50.210;10.628;2023-05-10T02:16:33;6.38;;;4.88;;
8536;SDS011;4306;50.210;10.628;2023-05-10T02:19:02;8.25;;;4.90;;
8536;SDS011;4306;50.210;10.628;2023-05-10T02:21:31;9.35;;;4.93;;
8536;SDS011;4306;50.210;10.628;2023-05-10T02:24:00;6.38;;;4.75;;
8536;SDS011;4306;50.210;10.628;2023-05-10T02:26:28;6.82;;;4.88;;
8536;SDS011;4306;50.210;10.628;2023-05-10T02:28:57;6.82;;;4.85;;
8536;SDS011;4306;50.210;10.628;2023-05-10T02:31:24;7.75;;;4.72;;
8536;SDS011;4306;50.210;10.628;2023-05-10T02:33:52;5.55;;;4.53;;
8536;SDS011;4306;50.210;10.628;2023-05-10T02:36:20;14.73;;;10.55;;
8536;SDS011;4306;50.210;10.628;2023-05-10T02:38:49;45.90;;;30.02;;
8536;SDS011;4306;50.210;10.628;2023-05-10T02:41:18;53.42;;;34.17;;
8536;SDS011;4306;50.210;10.628;2023-05-10T02:43:47;18.10;;;14.23;;
8536;SDS011;4306;50.210;10.628;2023-05-10T02:46:17;7.13;;;5.75;;
8536;SDS011;4306;50.210;10.628;2023-05-10T02:48:43;5.47;;;4.10;;
8536;SDS011;4306;50.210;10.628;2023-05-10T02:51:11;4.80;;;3.25;;
8536;SDS011;4306;50.210;10.628;2023-05-10T02:53:42;5.63;;;4.35;;
8536;SDS011;4306;50.210;10.628;2023-05-10T02:56:14;5.43;;;4.45;;
8536;SDS011;4306;50.210;10.628;2023-05-10T02:58:51;8.95;;;8.05;;
8536;SDS011;4306;50.210;10.628;2023-05-10T03:01:18;3.88;;;3.08;;
8536;SDS011;4306;50.210;10.628;2023-05-10T03:03:45;4.65;;;3.75;;
8536;SDS011;4306;50.210;10.628;2023-05-10T03:06:12;3.78;;;3.08;;
8536;SDS011;4306;50.210;10.628;2023-05-10T03:08:39;3.90;;;3.10;;
8536;SDS011;4306;50.210;10.628;2023-05-10T03:11:09;4.10;;;3.03;;
8536;SDS011;4306;50.210;10.628;2023-05-10T03:13:53;4.47;;;2.78;;
8536;SDS011;4306;50.210;10.628;2023-05-10T03:16:33;4.55;;;3.20;;
8536;SDS011;4306;50.210;10.628;2023-05-10T03:19:06;3.78;;;2.55;;
8536;SDS011;4306;50.210;10.628;2023-05-10T03:21:41;4.53;;;3.00;;
8536;SDS011;4306;50.210;10.628;2023-05-10T03:24:13;5.57;;;3.00;;
8536;SDS011;4306;50.210;10.628;2023-05-10T03:26:42;5.03;;;2.83;;
8536;SDS011;4306;50.210;10.628;2023-05-10T03:29:11;5.38;;;3.22;;
8536;SDS011;4306;50.210;10.628;2023-05-10T03:31:39;4.57;;;3.00;;
8536;SDS011;4306;50.210;10.628;2023-05-10T03:34:06;3.90;;;2.88;;
8536;SDS011;4306;50.210;10.628;2023-05-10T03:36:33;4.75;;;3.58;;
8536;SDS011;4306;50.210;10.628;2023-05-10T03:39:01;6.65;;;3.33;;
8536;SDS011;4306;50.210;10.628;2023-05-10T03:41:28;5.15;;;3.42;;
8536;SDS011;4306;50.210;10.628;2023-05-10T03:43:57;2.97;;;1.85;;
8536;SDS011;4306;50.210;10.628;2023-05-10T03:46:23;2.70;;;1.63;;
8536;SDS011;4306;50.210;10.628;2023-05-10T03:48:50;2.22;;;1.10;;
8536;SDS011;4306;50.210;10.628;2023-05-10T03:51:17;1.30;;;0.82;;
8536;SDS011;4306;50.210;10.628;2023-05-10T03:53:44;2.60;;;1.20;;
8536;SDS011;4306;50.210;10.628;2023-05-10T03:56:11;2.92;;;1.50;;
8536;SDS011;4306;50.210;10.628;2023-05-10T03:58:37;1.73;;;1.30;;
8536;SDS011;4306;50.210;10.628;2023-05-10T04:01:06;2.30;;;1.15;;
8536;SDS011;4306;50.210;10.628;2023-05-10T04:03:32;1.60;;;1.00;;
8536;SDS011;4306;50.210;10.628;2023-05-10T04:06:01;1.73;;;0.90;;
8536;SDS011;4306;50.210;10.628;2023-05-10T04:08:28;1.60;;;0.82;;
8536;SDS011;4306;50.210;10.628;2023-05-10T04:11:04;1.40;;;0.80;;
8536;SDS011;4306;50.210;10.628;2023-05-10T04:13:31;0.98;;;0.80;;
8536;SDS011;4306;50.210;10.628;2023-05-10T04:15:58;1.17;;;0.70;;
8536;SDS011;4306;50.210;10.628;2023-05-10T04:18:26;2.28;;;0.80;;
8536;SDS011;4306;50.210;10.628;2023-05-10T04:20:53;2.47;;;0.77;;
8536;SDS011;4306;50.210;10.628;2023-05-10T04:23:19;2.78;;;0.98;;
8536;SDS011;4306;50.210;10.628;2023-05-10T04:25:46;1.02;;;0.70;;
8536;SDS011;4306;50.210;10.628;2023-05-10T04:28:13;1.05;;;0.93;;
8536;SDS011;4306;50.210;10.628;2023-05-10T04:30:40;4.43;;;0.85;;
8536;SDS011;4306;50.210;10.628;2023-05-10T04:33:07;1.67;;;0.90;;
8536;SDS011;4306;50.210;10.628;2023-05-10T04:35:35;1.63;;;0.50;;
8536;SDS011;4306;50.210;10.628;2023-05-10T04:38:02;1.00;;;0.80;;
8536;SDS011;4306;50.210;10.628;2023-05-10T04:40:29;1.25;;;0.80;;
8536;SDS011;4306;50.210;10.628;2023-05-10T04:42:56;0.63;;;0.60;;
8536;SDS011;4306;50.210;10.628;2023-05-10T04:45:22;0.70;;;0.70;;
8536;SDS011;4306;50.210;10.628;2023-05-10T04:47:49;0.82;;;0.60;;
8536;SDS011;4306;50.210;10.628;2023-05-10T04:50:16;1.15;;;0.80;;
8536;SDS011;4306;50.210;10.628;2023-05-10T04:52:44;0.70;;;0.70;;
8536;SDS011;4306;50.210;10.628;2023-05-10T04:55:11;0.82;;;0.52;;
8536;SDS011;4306;50.210;10.628;2023-05-10T04:57:38;0.77;;;0.60;;
8536;SDS011;4306;50.210;10.628;2023-05-10T05:00:06;1.00;;;0.70;;
8536;SDS011;4306;50.210;10.628;2023-05-10T05:02:33;0.93;;;0.50;;
8536;SDS011;4306;50.210;10.628;2023-05-10T05:05:00;1.13;;;0.40;;
8536;SDS011;4306;50.210;10.628;2023-05-10T05:07:26;2.17;;;0.50;;
8536;SDS011;4306;50.210;10.628;2023-05-10T05:09:56;0.80;;;0.60;;
8536;SDS011;4306;50.210;10.628;2023-05-10T05:12:23;1.55;;;0.50;;
8536;SDS011;4306;50.210;10.628;2023-05-10T05:14:50;0.57;;;0.50;;
8536;SDS011;4306;50.210;10.628;2023-05-10T05:17:17;1.80;;;1.00;;
8536;SDS011;4306;50.210;10.628;2023-05-10T05:19:43;1.50;;;1.00;;
8536;SDS011;4306;50.210;10.628;2023-05-10T05:22:10;3.67;;;1.83;;
8536;SDS011;4306;50.210;10.628;2023-05-10T05:24:37;4.38;;;3.35;;
8536;SDS011;4306;50.210;10.628;2023-05-10T05:27:05;1.45;;;1.05;;
8536;SDS011;4306;50.210;10.628;2023-05-10T05:29:32;1.75;;;0.80;;
8536;SDS011;4306;50.210;10.628;2023-05-10T05:31:59;0.80;;;0.80;;
8536;SDS011;4306;50.210;10.628;2023-05-10T05:34:26;0.57;;;0.57;;
8536;SDS011;4306;50.210;10.628;2023-05-10T05:36:53;2.15;;;0.93;;
8536;SDS011;4306;50.210;10.628;2023-05-10T05:39:20;0.93;;;0.60;;
8536;SDS011;4306;50.210;10.628;2023-05-10T05:41:47;1.98;;;0.70;;
8536;SDS011;4306;50.210;10.628;2023-05-10T05:44:15;0.30;;;0.30;;
8536;SDS011;4306;50.210;10.628;2023-05-10T05:46:42;0.43;;;0.43;;
8536;SDS011;4306;50.210;10.628;2023-05-10T05:49:09;1.33;;;1.13;;
8536;SDS011;4306;50.210;10.628;2023-05-10T05:51:35;0.45;;;0.35;;
8536;SDS011;4306;50.210;10.628;2023-05-10T05:54:02;0.57;;;0.50;;
8536;SDS011;4306;50.210;10.628;2023-05-10T05:56:29;0.93;;;0.73;;
8536;SDS011;4306;50.210;10.628;2023-05-10T05:58:56;0.63;;;0.63;;
8536;SDS011;4306;50.210;10.628;2023-05-10T06:01:24;0.52;;;0.50;;
8536;SDS011;4306;50.210;10.628;2023-05-10T06:03:51;0.50;;;0.50;;
8536;SDS011;4306;50.210;10.628;2023-05-10T06:06:18;0.93;;;0.70;;
8536;SDS011;4306;50.210;10.628;2023-05-10T06:08:44;0.40;;;0.40;;
8536;SDS011;4306;50.210;10.628;2023-05-10T06:11:11;0.63;;;0.40;;
8536;SDS011;4306;50.210;10.628;2023-05-10T06:13:38;0.50;;;0.50;;
8536;SDS011;4306;50.210;10.628;2023-05-10T06:16:05;0.60;;;0.60;;
8536;SDS011;4306;50.210;10.628;2023-05-10T06:18:33;2.40;;;0.95;;
8536;SDS011;4306;50.210;10.628;2023-05-10T06:21:01;1.50;;;0.90;;
8536;SDS011;4306;50.210;10.628;2023-05-10T06:23:27;1.58;;;0.60;;
8536;SDS011;4306;50.210;10.628;2023-05-10T06:25:54;2.47;;;2.17;;
8536;SDS011;4306;50.210;10.628;2023-05-10T06:28:21;1.20;;;0.82;;
8536;SDS011;4306;50.210;10.628;2023-05-10T06:30:48;2.28;;;0.80;;
8536;SDS011;4306;50.210;10.628;2023-05-10T06:33:15;2.95;;;0.82;;
8536;SDS011;4306;50.210;10.628;2023-05-10T06:35:43;1.42;;;1.40;;
8536;SDS011;4306;50.210;10.628;2023-05-10T06:38:10;0.73;;;0.60;;
8536;SDS011;4306;50.210;10.628;2023-05-10T06:40:36;0.60;;;0.60;;
8536;SDS011;4306;50.210;10.628;2023-05-10T06:43:07;1.40;;;0.55;;
8536;SDS011;4306;50.210;10.628;2023-05-10T06:45:33;0.57;;;0.55;;
8536;SDS011;4306;50.210;10.628;2023-05-10T06:48:00;2.55;;;0.80;;
8536;SDS011;4306;50.210;10.628;2023-05-10T06:50:27;1.58;;;0.90;;
8536;SDS011;4306;50.210;10.628;2023-05-10T06:52:55;3.55;;;2.20;;
8536;SDS011;4306;50.210;10.628;2023-05-10T06:55:22;4.75;;;2.08;;
8536;SDS011;4306;50.210;10.628;2023-05-10T06:57:49;2.33;;;1.35;;
8536;SDS011;4306;50.210;10.628;2023-05-10T07:00:16;0.82;;;0.75;;
8536;SDS011;4306;50.210;10.628;2023-05-10T07:02:43;2.38;;;0.80;;
8536;SDS011;4306;50.210;10.628;2023-05-10T07:05:10;0.52;;;0.50;;
8536;SDS011;4306;50.210;10.628;2023-05-10T07:07:38;0.75;;;0.60;;
8536;SDS011;4306;50.210;10.628;2023-05-10T07:10:06;1.48;;;0.85;;
8536;SDS011;4306;50.210;10.628;2023-05-10T07:12:34;1.02;;;0.82;;
8536;SDS011;4306;50.210;10.628;2023-05-10T07:15:00;1.95;;;1.08;;
8536;SDS011;4306;50.210;10.628;2023-05-10T07:17:28;1.42;;;0.90;;
8536;SDS011;4306;50.210;10.628;2023-05-10T07:19:54;1.02;;;0.80;;
8536;SDS011;4306;50.210;10.628;2023-05-10T07:22:21;1.13;;;0.90;;
8536;SDS011;4306;50.210;10.628;2023-05-10T07:24:48;0.50;;;0.50;;
8536;SDS011;4306;50.210;10.628;2023-05-10T07:27:16;0.63;;;0.63;;
8536;SDS011;4306;50.210;10.628;2023-05-10T07:29:43;1.67;;;1.58;;
8536;SDS011;4306;50.210;10.628;2023-05-10T07:32:09;0.55;;;0.55;;
8536;SDS011;4306;50.210;10.628;2023-05-10T07:34:36;0.80;;;0.75;;
8536;SDS011;4306;50.210;10.628;2023-05-10T07:37:03;1.88;;;0.90;;
8536;SDS011;4306;50.210;10.628;2023-05-10T07:39:31;2.85;;;2.67;;
8536;SDS011;4306;50.210;10.628;2023-05-10T07:41:57;1.55;;;1.05;;
8536;SDS011;4306;50.210;10.628;2023-05-10T07:44:26;0.60;;;0.60;;
8536;SDS011;4306;50.210;10.628;2023-05-10T07:46:52;4.38;;;4.15;;
8536;SDS011;4306;50.210;10.628;2023-05-10T07:49:20;2.28;;;0.70;;
8536;SDS011;4306;50.210;10.628;2023-05-10T07:51:49;0.80;;;0.70;;
8536;SDS011;4306;50.210;10.628;2023-05-10T07:54:16;0.60;;;0.52;;
8536;SDS011;4306;50.210;10.628;2023-05-10T07:56:42;1.33;;;0.90;;
8536;SDS011;4306;50.210;10.628;2023-05-10T07:59:14;2.08;;;1.45;;
8536;SDS011;4306;50.210;10.628;2023-05-10T08:01:42;0.52;;;0.52;;
8536;SDS011;4306;50.210;10.628;2023-05-10T08:04:09;1.67;;;0.70;;
8536;SDS011;4306;50.210;10.628;2023-05-10T08:06:36;0.70;;;0.70;;
8536;SDS011;4306;50.210;10.628;2023-05-10T08:09:03;1.17;;;0.70;;
8536;SDS011;4306;50.210;10.628;2023-05-10T08:11:30;1.67;;;0.75;;
8536;SDS011;4306;50.210;10.628;2023-05-10T08:13:58;1.05;;;0.60;;
8536;SDS011;4306;50.210;10.628;2023-05-10T08:16:25;1.88;;;0.63;;
8536;SDS011;4306;50.210;10.628;2023-05-10T08:18:53;2.00;;;0.60;;
8536;SDS011;4306;50.210;10.628;2023-05-10T08:21:20;0.82;;;0.50;;
8536;SDS011;4306;50.210;10.628;2023-05-10T08:23:47;1.40;;;0.70;;
8536;SDS011;4306;50.210;10.628;2023-05-10T08:26:14;0.60;;;0.60;;
8536;SDS011;4306;50.210;10.628;2023-05-10T08:28:40;0.50;;;0.50;;
8536;SDS011;4306;50.210;10.628;2023-05-10T08:31:07;1.48;;;0.50;;
8536;SDS011;4306;50.210;10.628;2023-05-10T08:33:34;1.65;;;1.50;;
8536;SDS011;4306;50.210;10.628;2023-05-10T08:36:02;0.80;;;0.57;;
8536;SDS011;4306;50.210;10.628;2023-05-10T08:38:29;1.27;;;0.80;;
8536;SDS011;4306;50.210;10.628;2023-05-10T08:40:56;1.75;;;0.80;;
8536;SDS011;4306;50.210;10.628;2023-05-10T08:43:25;0.80;;;0.77;;
8536;SDS011;4306;50.210;10.628;2023-05-10T08:45:54;1.05;;;0.95;;
8536;SDS011;4306;50.210;10.628;2023-05-10T08:48:22;2.72;;;0.80;;
8536;SDS011;4306;50.210;10.628;2023-05-10T08:50:52;0.80;;;0.75;;
8536;SDS011;4306;50.210;10.628;2023-05-10T08:53:22;2.17;;;1.05;;
8536;SDS011;4306;50.210;10.628;2023-05-10T08:55:52;4.53;;;1.60;;
8536;SDS011;4306;50.210;10.628;2023-05-10T08:58:19;1.58;;;0.95;;
8536;SDS011;4306;50.210;10.628;2023-05-10T09:00:48;0.93;;;0.70;;
8536;SDS011;4306;50.210;10.628;2023-05-10T09:03:15;2.58;;;0.90;;
8536;SDS011;4306;50.210;10.628;2023-05-10T09:05:42;4.25;;;3.97;;
8536;SDS011;4306;50.210;10.628;2023-05-10T09:08:10;1.35;;;0.80;;
8536;SDS011;4306;50.210;10.628;2023-05-10T09:10:39;1.10;;;0.68;;
8536;SDS011;4306;50.210;10.628;2023-05-10T09:13:08;3.17;;;0.82;;
8536;SDS011;4306;50.210;10.628;2023-05-10T09:15:36;1.02;;;0.80;;
8536;SDS011;4306;50.210;10.628;2023-05-10T09:18:03;1.88;;;0.77;;
8536;SDS011;4306;50.210;10.628;2023-05-10T09:20:30;2.22;;;0.70;;
8536;SDS011;4306;50.210;10.628;2023-05-10T09:22:57;1.80;;;1.23;;
8536;SDS011;4306;50.210;10.628;2023-05-10T09:25:24;1.80;;;1.00;;
8536;SDS011;4306;50.210;10.628;2023-05-10T09:27:52;6.85;;;6.45;;
8536;SDS011;4306;50.210;10.628;2023-05-10T09:30:23;0.77;;;0.73;;
8536;SDS011;4306;50.210;10.628;2023-05-10T09:32:51;2.33;;;1.52;;
8536;SDS011;4306;50.210;10.628;2023-05-10T09:35:19;1.60;;;1.02;;
8536;SDS011;4306;50.210;10.628;2023-05-10T09:37:49;2.45;;;1.00;;
8536;SDS011;4306;50.210;10.628;2023-05-10T09:40:18;1.08;;;0.98;;
8536;SDS011;4306;50.210;10.628;2023-05-10T09:42:50;2.22;;;0.90;;
8536;SDS011;4306;50.210;10.628;2023-05-10T09:45:20;1.05;;;1.00;;
8536;SDS011;4306;50.210;10.628;2023-05-10T09:47:47;1.08;;;0.90;;
8536;SDS011;4306;50.210;10.628;2023-05-10T09:50:14;2.97;;;1.23;;
8536;SDS011;4306;50.210;10.628;2023-05-10T09:52:48;4.40;;;1.27;;
8536;SDS011;4306;50.210;10.628;2023-05-10T09:55:17;2.17;;;1.55;;
8536;SDS011;4306;50.210;10.628;2023-05-10T09:57:46;1.35;;;1.13;;
8536;SDS011;4306;50.210;10.628;2023-05-10T10:00:17;2.15;;;1.30;;
8536;SDS011;4306;50.210;10.628;2023-05-10T10:02:45;1.83;;;1.25;;
8536;SDS011;4306;50.210;10.628;2023-05-10T10:05:14;2.63;;;1.85;;
8536;SDS011;4306;50.210;10.628;2023-05-10T10:07:41;2.17;;;1.70;;
8536;SDS011;4306;50.210;10.628;2023-05-10T10:10:08;3.85;;;1.38;;
8536;SDS011;4306;50.210;10.628;2023-05-10T10:12:37;1.85;;;1.30;;
8536;SDS011;4306;50.210;10.628;2023-05-10T10:15:05;2.00;;;1.40;;
8536;SDS011;4306;50.210;10.628;2023-05-10T10:17:35;2.30;;;1.40;;
8536;SDS011;4306;50.210;10.628;2023-05-10T10:20:03;3.63;;;1.67;;
8536;SDS011;4306;50.210;10.628;2023-05-10T10:22:30;4.97;;;4.53;;
8536;SDS011;4306;50.210;10.628;2023-05-10T10:24:57;2.15;;;1.95;;
8536;SDS011;4306;50.210;10.628;2023-05-10T10:27:26;3.65;;;1.58;;
8536;SDS011;4306;50.210;10.628;2023-05-10T10:30:02;2.10;;;1.38;;
8536;SDS011;4306;50.210;10.628;2023-05-10T10:32:46;1.30;;;1.10;;
8536;SDS011;4306;50.210;10.628;2023-05-10T10:35:35;4.60;;;4.30;;
8536;SDS011;4306;50.210;10.628;2023-05-10T10:38:02;1.60;;;1.23;;
8536;SDS011;4306;50.210;10.628;2023-05-10T10:40:30;2.30;;;1.50;;
8536;SDS011;4306;50.210;10.628;2023-05-10T10:42:57;3.90;;;1.48;;
8536;SDS011;4306;50.210;10.628;2023-05-10T10:45:47;1.80;;;1.20;;
8536;SDS011;4306;50.210;10.628;2023-05-10T10:48:35;2.20;;;1.40;;
8536;SDS011;4306;50.210;10.628;2023-05-10T10:51:02;1.45;;;1.08;;
8536;SDS011;4306;50.210;10.628;2023-05-10T10:53:29;1.92;;;1.35;;
8536;SDS011;4306;50.210;10.628;2023-05-10T10:56:04;4.18;;;2.85;;
8536;SDS011;4306;50.210;10.628;2023-05-10T10:58:34;2.00;;;1.30;;
8536;SDS011;4306;50.210;10.628;2023-05-10T11:06:44;1.95;;;1.10;;
8536;SDS011;4306;50.210;10.628;2023-05-10T11:09:11;1.67;;;1.00;;
8536;SDS011;4306;50.210;10.628;2023-05-10T11:11:48;1.60;;;1.15;;
8536;SDS011;4306;50.210;10.628;2023-05-10T11:14:19;1.80;;;1.20;;
8536;SDS011;4306;50.210;10.628;2023-05-10T11:16:47;2.03;;;1.73;;
8536;SDS011;4306;50.210;10.628;2023-05-10T11:19:15;2.03;;;1.35;;
8536;SDS011;4306;50.210;10.628;2023-05-10T11:21:48;4.18;;;3.42;;
8536;SDS011;4306;50.210;10.628;2023-05-10T11:24:16;2.03;;;1.30;;
8536;SDS011;4306;50.210;10.628;2023-05-10T11:26:44;3.20;;;1.50;;
8536;SDS011;4306;50.210;10.628;2023-05-10T11:29:12;1.63;;;1.23;;
8536;SDS011;4306;50.210;10.628;2023-05-10T11:31:42;2.10;;;1.13;;
8536;SDS011;4306;50.210;10.628;2023-05-10T11:34:10;1.80;;;1.20;;
8536;SDS011;4306;50.210;10.628;2023-05-10T11:36:39;1.55;;;1.17;;
8536;SDS011;4306;50.210;10.628;2023-05-10T11:39:07;2.90;;;1.40;;
8536;SDS011;4306;50.210;10.628;2023-05-10T11:41:36;1.80;;;1.23;;
8536;SDS011;4306;50.210;10.628;2023-05-10T11:44:03;3.08;;;1.48;;
8536;SDS011;4306;50.210;10.628;2023-05-10T11:46:30;2.40;;;1.48;;
8536;SDS011;4306;50.210;10.628;2023-05-10T11:48:57;2.08;;;1.40;;
8536;SDS011;4306;50.210;10.628;2023-05-10T11:51:27;3.58;;;2.47;;
8536;SDS011;4306;50.210;10.628;2023-05-10T11:53:55;2.42;;;1.60;;
8536;SDS011;4306;50.210;10.628;2023-05-10T11:56:24;2.75;;;1.33;;
8536;SDS011;4306;50.210;10.628;2023-05-10T11:58:52;1.77;;;1.13;;
8536;SDS011;4306;50.210;10.628;2023-05-10T12:01:20;2.55;;;1.40;;
8536;SDS011;4306;50.210;10.628;2023-05-10T12:03:48;3.63;;;1.50;;
8536;SDS011;4306;50.210;10.628;2023-05-10T12:06:16;3.58;;;1.55;;
8536;SDS011;4306;50.210;10.628;2023-05-10T12:08:44;3.00;;;1.55;;
8536;SDS011;4306;50.210;10.628;2023-05-10T12:11:11;4.38;;;3.95;;
8536;SDS011;4306;50.210;10.628;2023-05-10T12:13:42;4.60;;;2.00;;
8536;SDS011;4306;50.210;10.628;2023-05-10T12:16:15;1.33;;;1.00;;
8536;SDS011;4306;50.210;10.628;2023-05-10T12:18:42;1.55;;;1.30;;
8536;SDS011;4306;50.210;10.628;2023-05-10T12:21:10;2.05;;;1.17;;
8536;SDS011;4306;50.210;10.628;2023-05-10T12:23:37;4.55;;;2.65;;
8536;SDS011;4306;50.210;10.628;2023-05-10T12:26:05;8.80;;;8.20;;
8536;SDS011;4306;50.210;10.628;2023-05-10T12:28:32;2.55;;;1.60;;
8536;SDS011;4306;50.210;10.628;2023-05-10T12:31:01;5.90;;;5.50;;
8536;SDS011;4306;50.210;10.628;2023-05-10T12:33:34;2.10;;;1.33;;
8536;SDS011;4306;50.210;10.628;2023-05-10T12:36:04;3.42;;;1.73;;
8536;SDS011;4306;50.210;10.628;2023-05-10T12:38:32;1.52;;;1.23;;
8536;SDS011;4306;50.210;10.628;2023-05-10T12:41:00;2.55;;;1.38;;
8536;SDS011;4306;50.210;10.628;2023-05-10T12:43:28;2.33;;;1.42;;
8536;SDS011;4306;50.210;10.628;2023-05-10T12:45:55;3.75;;;1.77;;
8536;SDS011;4306;50.210;10.628;2023-05-10T12:48:23;2.42;;;1.40;;
8536;SDS011;4306;50.210;10.628;2023-05-10T12:50:50;3.47;;;1.77;;
8536;SDS011;4306;50.210;10.628;2023-05-10T12:53:17;5.07;;;4.80;;
8536;SDS011;4306;50.210;10.628;2023-05-10T12:55:43;1.58;;;0.77;;
8536;SDS011;4306;50.210;10.628;2023-05-10T12:58:10;1.73;;;1.13;;
8536;SDS011;4306;50.210;10.628;2023-05-10T13:00:37;1.13;;;1.00;;
8536;SDS011;4306;50.210;10.628;2023-05-10T13:03:04;2.17;;;0.80;;
8536;SDS011;4306;50.210;10.628;2023-05-10T13:05:32;1.80;;;1.10;;
8536;SDS011;4306;50.210;10.628;2023-05-10T13:07:59;1.48;;;1.10;;
8536;SDS011;4306;50.210;10.628;2023-05-10T13:10:26;4.25;;;1.00;;
8536;SDS011;4306;50.210;10.628;2023-05-10T13:12:55;1.05;;;0.95;;
8536;SDS011;4306;50.210;10.628;2023-05-10T13:15:22;3.72;;;3.42;;
8536;SDS011;4306;50.210;10.628;2023-05-10T13:17:49;1.02;;;0.93;;
8536;SDS011;4306;50.210;10.628;2023-05-10T13:20:15;0.98;;;0.70;;
8536;SDS011;4306;50.210;10.628;2023-05-10T13:22:44;1.92;;;1.83;;
8536;SDS011;4306;50.210;10.628;2023-05-10T13:25:11;1.20;;;0.90;;
8536;SDS011;4306;50.210;10.628;2023-05-10T13:27:38;2.47;;;1.65;;
8536;SDS011;4306;50.210;10.628;2023-05-10T13:30:06;2.33;;;1.08;;
8536;SDS011;4306;50.210;10.628;2023-05-10T13:32:33;1.17;;;0.88;;
8536;SDS011;4306;50.210;10.628;2023-05-10T13:35:01;1.73;;;0.80;;
8536;SDS011;4306;50.210;10.628;2023-05-10T13:37:28;2.10;;;0.95;;
8536;SDS011;4306;50.210;10.628;2023-05-10T13:39:56;2.10;;;1.00;;
8536;SDS011;4306;50.210;10.628;2023-05-10T13:42:23;1.70;;;0.98;;
8536;SDS011;4306;50.210;10.628;2023-05-10T13:44:50;2.88;;;1.05;;
8536;SDS011;4306;50.210;10.628;2023-05-10T13:47:17;3.10;;;1.13;;
8536;SDS011;4306;50.210;10.628;2023-05-10T13:49:44;1.13;;;0.82;;
8536;SDS011;4306;50.210;10.628;2023-05-10T13:52:11;1.67;;;1.40;;
8536;SDS011;4306;50.210;10.628;2023-05-10T13:54:38;2.47;;;0.90;;
8536;SDS011;4306;50.210;10.628;2023-05-10T13:57:07;5.13;;;4.82;;
8536;SDS011;4306;50.210;10.628;2023-05-10T13:59:34;1.35;;;0.88;;
8536;SDS011;4306;50.210;10.628;2023-05-10T14:02:01;2.10;;;1.40;;
8536;SDS011;4306;50.210;10.628;2023-05-10T14:04:28;1.85;;;1.00;;
8536;SDS011;4306;50.210;10.628;2023-05-10T14:06:55;1.20;;;0.90;;
8536;SDS011;4306;50.210;10.628;2023-05-10T14:09:22;2.88;;;2.67;;
8536;SDS011;4306;50.210;10.628;2023-05-10T14:11:49;1.45;;;0.90;;
8536;SDS011;4306;50.210;10.628;2023-05-10T14:14:18;3.00;;;0.90;;
8536;SDS011;4306;50.210;10.628;2023-05-10T14:16:44;2.63;;;1.13;;
8536;SDS011;4306;50.210;10.628;2023-05-10T14:19:13;2.22;;;1.98;;
8536;SDS011;4306;50.210;10.628;2023-05-10T14:21:39;3.13;;;2.63;;
8536;SDS011;4306;50.210;10.628;2023-05-10T14:24:06;5.47;;;0.95;;
8536;SDS011;4306;50.210;10.628;2023-05-10T14:26:33;2.75;;;1.13;;
8536;SDS011;4306;50.210;10.628;2023-05-10T14:29:00;5.55;;;1.10;;
8536;SDS011;4306;50.210;10.628;2023-05-10T14:31:28;2.63;;;2.42;;
8536;SDS011;4306;50.210;10.628;2023-05-10T14:33:56;2.38;;;2.17;;
8536;SDS011;4306;50.210;10.628;2023-05-10T14:36:24;1.67;;;1.33;;
8536;SDS011;4306;50.210;10.628;2023-05-10T14:38:50;1.30;;;0.75;;
8536;SDS011;4306;50.210;10.628;2023-05-10T14:41:17;2.05;;;0.80;;
8536;SDS011;4306;50.210;10.628;2023-05-10T14:43:44;7.22;;;1.17;;
8536;SDS011;4306;50.210;10.628;2023-05-10T14:46:11;2.72;;;1.85;;
8536;SDS011;4306;50.210;10.628;2023-05-10T14:48:39;2.22;;;0.98;;
8536;SDS011;4306;50.210;10.628;2023-05-10T14:51:06;2.00;;;1.33;;
8536;SDS011;4306;50.210;10.628;2023-05-10T14:53:33;0.60;;;0.60;;
8536;SDS011;4306;50.210;10.628;2023-05-10T14:55:59;1.42;;;1.33;;
8536;SDS011;4306;50.210;10.628;2023-05-10T14:58:27;3.75;;;3.45;;
8536;SDS011;4306;50.210;10.628;2023-05-10T15:00:55;0.93;;;0.63;;
8536;SDS011;4306;50.210;10.628;2023-05-10T15:03:22;1.55;;;1.45;;
8536;SDS011;4306;50.210;10.628;2023-05-10T15:05:51;7.60;;;7.07;;
8536;SDS011;4306;50.210;10.628;2023-05-10T15:08:18;10.02;;;9.23;;
8536;SDS011;4306;50.210;10.628;2023-05-10T15:10:44;7.63;;;6.97;;
8536;SDS011;4306;50.210;10.628;2023-05-10T15:13:12;5.90;;;5.60;;